Berlin, Kentucky
Current Conditions -  °F | °C
As of 10:15 AM on Wednesday 22 Oct 2014 (Local Time) from KFGX Reporting Station
Overcast Overcast  
Wind Chill: 42°   Ceiling: 1800
Heat Index: 46°   Visibility: 10mi
Dew Point: 40°   Wind: 8mph
Humidity: 79%   Direction: 350°N
Pressure: 30.28"   Gusts: NA
Location:  38.7475°N, 84.1516°W
Report Text: KFGX 221415Z AUTO 35007KT 10SM OVC018 08/05 A3028 RMK AO2 T00800046
Loading
Personal Weather Stations






























Interactive Weather Map
Tropical Storm Tracking
New forecast layout! Learn more

10-Day Weather Forecast

Advertisements
Track Severe Weather on mobile